Time;durP1;ratioP1;P1;durP2;ratioP2;P2;SDS_P1;SDS_P2;PMS_P1;PMS_P2;Temp;Humidity;BMP_temperature;BMP_pressure;BME280_temperature;BME280_humidity;BME280_pressure;Samples;Min_cycle;Max_cycle;Signal;HPM_P1;HPM_P2
2022/05/09 00:01:42;;;;;;;;;;;;;;;;;;5030156;28;19917;-77
2022/05/09 00:04:08;;;;;;;;;;;;;;;;;;5027637;28;20321;-77
2022/05/09 00:06:34;;;;;;;;;;;;;;;;;;5009207;28;19917;-77
2022/05/09 00:09:00;;;;;;;;;;;;;;;;;;4996164;28;20016;-77
2022/05/09 00:11:26;;;;;;;;;;;;;;;;;;5017614;28;19920;-77
2022/05/09 00:13:51;;;;;;;;;;;;;;;;;;5012857;28;20344;-77
2022/05/09 00:16:17;;;;;;;;;;;;;;;;;;5014683;28;20319;-77
2022/05/09 00:18:43;;;;;;;;;;;;;;;;;;5029176;28;19913;-77
2022/05/09 00:21:16;;;;;;;;;;;;;;;;;;5031981;28;20383;-77
2022/05/09 00:23:42;;;;;;;;;;;;;;;;;;5011135;28;19917;-77
2022/05/09 00:26:08;;;;;;;;;;;;;;;;;;5030759;28;19967;-76
2022/05/09 00:28:34;;;;;;;;;;;;;;;;;;5013578;28;20004;-77
2022/05/09 00:30:59;;;;;;;;;;;;;;;;;;5018637;28;19955;-77
2022/05/09 00:33:25;;;;;;;;;;;;;;;;;;5035257;28;19920;-78
2022/05/09 00:35:51;;;;;;;;;;;;;;;;;;5008900;28;19913;-77
2022/05/09 00:38:17;;;;;;;;;;;;;;;;;;5033003;28;19982;-77
2022/05/09 00:41:28;;;;;;;;;;;;;;;;;;5033965;28;19913;-77
2022/05/09 00:43:29;;;;;;;;;;;;;;;;;;5027790;28;20340;-77
2022/05/09 00:45:55;;;;;;;;;;;;;;;;;;5020161;28;20051;-77
2022/05/09 00:48:21;;;;;;;;;;;;;;;;;;5013502;28;19913;-77
2022/05/09 00:50:47;;;;;;;;;;;;;;;;;;5019281;28;19921;-77
2022/05/09 00:53:13;;;;;;;;;;;;;;;;;;5033566;28;19924;-77
2022/05/09 00:55:41;;;;;;;;;;;;;;;;;;5032012;28;19913;-77
2022/05/09 00:58:07;;;;;;;;;;;;;;;;;;5021866;28;19916;-77
2022/05/09 01:00:33;;;;;;;;;;;;;;;;;;5035574;28;19924;-77
2022/05/09 01:02:59;;;;;;;;;;;;;;;;;;5023076;28;20026;-77
2022/05/09 01:05:25;;;;;;;;;;;;;;;;;;5016716;28;19996;-77
2022/05/09 01:07:51;;;;;;;;;;;;;;;;;;5021745;28;19946;-77
2022/05/09 01:10:17;;;;;;;;;;;;;;;;;;5020805;28;19923;-77
2022/05/09 01:12:43;;;;;;;;;;;;;;;;;;5038278;28;19920;-77
2022/05/09 01:15:09;;;;;;;;;;;;;;;;;;5039411;28;20061;-77
2022/05/09 01:17:39;;;;;;;;;;;;;;;;;;5037465;28;19917;-77
2022/05/09 01:20:05;;;;;;;;;;;;;;;;;;5037271;28;19913;-77
2022/05/09 01:22:31;;;;;;;;;;;;;;;;;;5035784;28;19965;-77
2022/05/09 01:24:57;;;;;;;;;;;;;;;;;;5040818;28;20379;-76
2022/05/09 01:27:23;;;;;;;;;;;;;;;;;;5022580;28;20466;-77
2022/05/09 01:29:48;;;;;;;;;;;;;;;;;;5040790;28;20325;-77
2022/05/09 01:32:15;;;;;;;;;;;;;;;;;;5022354;28;20630;-76
2022/05/09 01:34:40;;;;;;;;;;;;;;;;;;5019108;28;20265;-76
2022/05/09 01:37:07;;;;;;;;;;;;;;;;;;5016601;28;19924;-76
2022/05/09 01:39:33;;;;;;;;;;;;;;;;;;5033451;28;19920;-77
2022/05/09 01:41:59;;;;;;;;;;;;;;;;;;5024288;28;20280;-77
2022/05/09 01:44:25;;;;;;;;;;;;;;;;;;5034756;28;20391;-76
2022/05/09 01:49:36;;;;;;;;;;;;;;;;;;5038744;28;19986;-77
2022/05/09 01:52:01;;;;;;;;;;;;;;;;;;5020354;28;20376;-77
2022/05/09 01:54:27;;;;;;;;;;;;;;;;;;5018007;28;19924;-77
2022/05/09 01:56:53;;;;;;;;;;;;;;;;;;5024526;28;19917;-77
2022/05/09 01:59:19;;;;;;;;;;;;;;;;;;5036425;28;19913;-76
2022/05/09 02:01:45;;;;;;;;;;;;;;;;;;5042226;28;19917;-77
2022/05/09 02:04:11;;;;;;;;;;;;;;;;;;5023827;28;20264;-77
2022/05/09 02:06:37;;;;;;;;;;;;;;;;;;5014598;28;20420;-77
2022/05/09 02:09:03;;;;;;;;;;;;;;;;;;5018464;28;20368;-77
2022/05/09 02:11:29;;;;;;;;;;;;;;;;;;5033075;28;20040;-77
2022/05/09 02:13:55;;;;;;;;;;;;;;;;;;5023993;28;20257;-77
2022/05/09 02:16:20;;;;;;;;;;;;;;;;;;5016220;28;19944;-77
2022/05/09 02:18:46;;;;;;;;;;;;;;;;;;5024657;28;19917;-77
2022/05/09 02:21:12;;;;;;;;;;;;;;;;;;5037753;28;20016;-76
2022/05/09 02:23:38;;;;;;;;;;;;;;;;;;5019294;28;19939;-77
2022/05/09 02:26:04;;;;;;;;;;;;;;;;;;5020804;28;20031;-77
2022/05/09 02:28:30;;;;;;;;;;;;;;;;;;5034340;28;19913;-77
2022/05/09 02:30:56;;;;;;;;;;;;;;;;;;5035973;28;19959;-76
2022/05/09 02:33:22;;;;;;;;;;;;;;;;;;5031381;28;20007;-77
2022/05/09 02:35:48;;;;;;;;;;;;;;;;;;5032869;28;20349;-77
2022/05/09 02:38:14;;;;;;;;;;;;;;;;;;5030069;28;19917;-76
2022/05/09 02:40:40;;;;;;;;;;;;;;;;;;5015043;28;19917;-77
2022/05/09 02:43:06;;;;;;;;;;;;;;;;;;5031160;28;19916;-76
2022/05/09 02:45:32;;;;;;;;;;;;;;;;;;5036021;28;19928;-77
2022/05/09 02:47:58;;;;;;;;;;;;;;;;;;5035664;28;19931;-77
2022/05/09 02:50:24;;;;;;;;;;;;;;;;;;5018782;28;19922;-77
2022/05/09 02:52:50;;;;;;;;;;;;;;;;;;5005326;28;19917;-77
2022/05/09 02:55:16;;;;;;;;;;;;;;;;;;5021163;28;19921;-76
2022/05/09 02:57:42;;;;;;;;;;;;;;;;;;5004073;28;20321;-76
2022/05/09 03:00:08;;;;;;;;;;;;;;;;;;5018627;28;19920;-76
2022/05/09 03:02:34;;;;;;;;;;;;;;;;;;5019656;28;19991;-76
2022/05/09 03:05:00;;;;;;;;;;;;;;;;;;4994987;28;20492;-77
2022/05/09 03:07:26;;;;;;;;;;;;;;;;;;4998169;28;19920;-77
2022/05/09 03:09:52;;;;;;;;;;;;;;;;;;5014332;28;19917;-77
2022/05/09 03:12:19;;;;;;;;;;;;;;;;;;5019154;28;19921;-77
2022/05/09 03:14:45;;;;;;;;;;;;;;;;;;5004357;28;20471;-77
2022/05/09 03:17:11;;;;;;;;;;;;;;;;;;5001461;28;19960;-77
2022/05/09 03:19:37;;;;;;;;;;;;;;;;;;5011775;28;19917;-77
2022/05/09 03:22:03;;;;;;;;;;;;;;;;;;5017252;28;20278;-77
2022/05/09 03:24:29;;;;;;;;;;;;;;;;;;5019142;28;19917;-77
2022/05/09 03:26:55;;;;;;;;;;;;;;;;;;5015782;28;20432;-77
2022/05/09 03:29:24;;;;;;;;;;;;;;;;;;5003507;28;19956;-77
2022/05/09 03:31:52;;;;;;;;;;;;;;;;;;5015785;28;19960;-77
2022/05/09 03:34:18;;;;;;;;;;;;;;;;;;5014888;28;19952;-77
2022/05/09 03:36:43;;;;;;;;;;;;;;;;;;5000114;28;20504;-77
2022/05/09 03:39:09;;;;;;;;;;;;;;;;;;5005038;28;19921;-77
2022/05/09 03:41:36;;;;;;;;;;;;;;;;;;5018024;28;20006;-77
2022/05/09 03:44:01;;;;;;;;;;;;;;;;;;5000741;28;20502;-77
2022/05/09 03:46:27;;;;;;;;;;;;;;;;;;5014072;28;20023;-77
2022/05/09 03:48:53;;;;;;;;;;;;;;;;;;5012920;28;19918;-77
2022/05/09 03:51:19;;;;;;;;;;;;;;;;;;5003028;28;20431;-77
2022/05/09 03:53:45;;;;;;;;;;;;;;;;;;5014841;28;19921;-77
2022/05/09 03:56:12;;;;;;;;;;;;;;;;;;5024899;28;20434;-77
2022/05/09 03:58:38;;;;;;;;;;;;;;;;;;5029778;28;19924;-77
2022/05/09 04:01:04;;;;;;;;;;;;;;;;;;5020380;28;19912;-77
2022/05/09 04:03:30;;;;;;;;;;;;;;;;;;5031582;28;20000;-77
2022/05/09 04:05:56;;;;;;;;;;;;;;;;;;5029351;28;20058;-77
2022/05/09 04:08:22;;;;;;;;;;;;;;;;;;5036422;28;21139;-77
2022/05/09 04:10:49;;;;;;;;;;;;;;;;;;5036279;28;19916;-77
2022/05/09 04:13:14;;;;;;;;;;;;;;;;;;5014015;28;19956;-77
2022/05/09 04:18:25;;;;;;;;;;;;;;;;;;5032774;28;19924;-77
2022/05/09 04:20:51;;;;;;;;;;;;;;;;;;5019975;28;19925;-77
2022/05/09 04:23:17;;;;;;;;;;;;;;;;;;5030774;28;19923;-77
2022/05/09 04:25:43;;;;;;;;;;;;;;;;;;5030368;28;19916;-77
2022/05/09 04:28:09;;;;;;;;;;;;;;;;;;5031961;28;20453;-77
2022/05/09 04:30:35;;;;;;;;;;;;;;;;;;5035365;28;20145;-77
2022/05/09 04:33:01;;;;;;;;;;;;;;;;;;5033112;28;19921;-79
2022/05/09 04:35:27;;;;;;;;;;;;;;;;;;5033262;28;19924;-77
2022/05/09 04:37:53;;;;;;;;;;;;;;;;;;5017251;28;20316;-77
2022/05/09 04:40:19;;;;;;;;;;;;;;;;;;5033053;28;20004;-77
2022/05/09 04:42:45;;;;;;;;;;;;;;;;;;5032261;28;19921;-77
2022/05/09 04:45:11;;;;;;;;;;;;;;;;;;5029967;28;19914;-77
2022/05/09 04:47:37;;;;;;;;;;;;;;;;;;5027129;28;19932;-77
2022/05/09 04:50:03;;;;;;;;;;;;;;;;;;5029394;28;20339;-77
2022/05/09 04:52:29;;;;;;;;;;;;;;;;;;4994237;28;19925;-77
2022/05/09 04:54:55;;;;;;;;;;;;;;;;;;4995613;28;19956;-77
2022/05/09 04:57:21;;;;;;;;;;;;;;;;;;5009237;28;20411;-77
2022/05/09 04:59:47;;;;;;;;;;;;;;;;;;5012871;28;19960;-76
2022/05/09 05:02:13;;;;;;;;;;;;;;;;;;4990030;28;20027;-77
2022/05/09 05:04:39;;;;;;;;;;;;;;;;;;5016545;28;19917;-77
2022/05/09 05:07:05;;;;;;;;;;;;;;;;;;5009045;28;19918;-77
2022/05/09 05:09:31;;;;;;;;;;;;;;;;;;5003803;28;19928;-77
2022/05/09 05:11:57;;;;;;;;;;;;;;;;;;5000123;28;20328;-77
2022/05/09 05:14:23;;;;;;;;;;;;;;;;;;4996608;28;19917;-77
2022/05/09 05:17:02;;;;;;;;;;;;;;;;;;4991554;28;19959;-77
2022/05/09 05:19:28;;;;;;;;;;;;;;;;;;5011856;28;19917;-77
2022/05/09 05:21:53;;;;;;;;;;;;;;;;;;4994424;28;19928;-77
2022/05/09 05:24:19;;;;;;;;;;;;;;;;;;4993560;28;19917;-77
2022/05/09 05:26:45;;;;;;;;;;;;;;;;;;4991058;28;19960;-77
2022/05/09 05:29:12;;;;;;;;;;;;;;;;;;5001197;28;19917;-77
2022/05/09 05:31:38;;;;;;;;;;;;;;;;;;5010894;28;20365;-77
2022/05/09 05:34:03;;;;;;;;;;;;;;;;;;5001444;28;19936;-77
2022/05/09 05:36:29;;;;;;;;;;;;;;;;;;4995563;28;19924;-77
2022/05/09 05:38:55;;;;;;;;;;;;;;;;;;4996662;28;20377;-77
2022/05/09 05:41:22;;;;;;;;;;;;;;;;;;5007157;28;20435;-77
2022/05/09 05:43:48;;;;;;;;;;;;;;;;;;4995913;28;20433;-77
2022/05/09 05:46:14;;;;;;;;;;;;;;;;;;5020190;28;20000;-77
2022/05/09 05:48:40;;;;;;;;;;;;;;;;;;5016447;28;20469;-77
2022/05/09 05:51:06;;;;;;;;;;;;;;;;;;5006226;28;20466;-77
2022/05/09 05:53:32;;;;;;;;;;;;;;;;;;5032513;28;20468;-77
2022/05/09 05:55:58;;;;;;;;;;;;;;;;;;5032212;28;20019;-77
2022/05/09 05:58:26;;;;;;;;;;;;;;;;;;5013902;28;19959;-77
2022/05/09 06:00:52;;;;;;;;;;;;;;;;;;5036532;28;20284;-77
2022/05/09 06:03:20;;;;;;;;;;;;;;;;;;5031427;28;19913;-77
2022/05/09 06:05:46;;;;;;;;;;;;;;;;;;5028773;28;20273;-77
2022/05/09 06:08:12;;;;;;;;;;;;;;;;;;5036427;28;19917;-77
2022/05/09 06:10:37;;;;;;;;;;;;;;;;;;5022457;28;19952;-77
2022/05/09 06:13:03;;;;;;;;;;;;;;;;;;5014707;28;19951;-77
2022/05/09 06:15:31;;;;;;;;;;;;;;;;;;5028091;28;19920;-78
2022/05/09 06:17:57;;;;;;;;;;;;;;;;;;5031609;28;19923;-77
2022/05/09 06:20:23;;;;;;;;;;;;;;;;;;5035322;28;19979;-77
2022/05/09 06:22:58;;;;;;;;;;;;;;;;;;5024077;28;19917;-77
2022/05/09 06:25:24;;;;;;;;;;;;;;;;;;5015848;28;19921;-77
2022/05/09 06:27:49;;;;;;;;;;;;;;;;;;5012040;28;19917;-77
2022/05/09 06:30:15;;;;;;;;;;;;;;;;;;5029956;28;19943;-77
2022/05/09 06:32:41;;;;;;;;;;;;;;;;;;5012438;28;19994;-76
2022/05/09 06:35:07;;;;;;;;;;;;;;;;;;5006465;28;20011;-77
2022/05/09 06:37:33;;;;;;;;;;;;;;;;;;5012989;28;19928;-77
2022/05/09 06:39:59;;;;;;;;;;;;;;;;;;5027383;28;20039;-77
2022/05/09 06:42:25;;;;;;;;;;;;;;;;;;5027121;28;20362;-77
2022/05/09 06:44:51;;;;;;;;;;;;;;;;;;5017252;28;19913;-77
2022/05/09 06:47:17;;;;;;;;;;;;;;;;;;5013415;28;20339;-76
2022/05/09 06:49:43;;;;;;;;;;;;;;;;;;5029238;28;20367;-77
2022/05/09 06:52:09;;;;;;;;;;;;;;;;;;5014377;28;20051;-77
2022/05/09 06:54:35;;;;;;;;;;;;;;;;;;4993812;28;20361;-77
2022/05/09 06:57:01;;;;;;;;;;;;;;;;;;5017095;28;19960;-77
2022/05/09 06:59:27;;;;;;;;;;;;;;;;;;4996607;28;19921;-77
2022/05/09 07:01:53;;;;;;;;;;;;;;;;;;5000858;28;20338;-77
2022/05/09 07:04:19;;;;;;;;;;;;;;;;;;5010410;28;19935;-77
2022/05/09 07:06:44;;;;;;;;;;;;;;;;;;5014171;28;20320;-77
2022/05/09 07:09:11;;;;;;;;;;;;;;;;;;4987664;28;20396;-77
2022/05/09 07:11:37;;;;;;;;;;;;;;;;;;5010184;28;20317;-77
2022/05/09 07:14:04;;;;;;;;;;;;;;;;;;4996953;28;19927;-77
2022/05/09 07:16:30;;;;;;;;;;;;;;;;;;4992984;28;19917;-77
2022/05/09 07:18:56;;;;;;;;;;;;;;;;;;5011457;28;19913;-77
2022/05/09 07:21:22;;;;;;;;;;;;;;;;;;5008529;28;19920;-77
2022/05/09 07:23:48;;;;;;;;;;;;;;;;;;5008770;28;20372;-77
2022/05/09 07:26:14;;;;;;;;;;;;;;;;;;5012209;28;19913;-77
2022/05/09 07:28:42;;;;;;;;;;;;;;;;;;5000049;28;20457;-78
2022/05/09 07:31:08;;;;;;;;;;;;;;;;;;4993763;28;20543;-77
2022/05/09 07:33:34;;;;;;;;;;;;;;;;;;5013743;28;19954;-77
2022/05/09 07:36:00;;;;;;;;;;;;;;;;;;5001731;28;20346;-77
2022/05/09 07:38:26;;;;;;;;;;;;;;;;;;5008046;28;19920;-77
2022/05/09 07:40:51;;;;;;;;;;;;;;;;;;5012357;28;19924;-77
2022/05/09 07:43:17;;;;;;;;;;;;;;;;;;5009934;28;19999;-77
2022/05/09 07:45:43;;;;;;;;;;;;;;;;;;4996509;28;19917;-77
2022/05/09 07:48:09;;;;;;;;;;;;;;;;;;5014489;28;20024;-77
2022/05/09 07:50:35;;;;;;;;;;;;;;;;;;5012424;28;19983;-77
2022/05/09 07:53:01;;;;;;;;;;;;;;;;;;4991580;28;20380;-77
2022/05/09 07:55:27;;;;;;;;;;;;;;;;;;5008796;28;20443;-77
2022/05/09 07:57:53;;;;;;;;;;;;;;;;;;5008643;28;20458;-77
2022/05/09 08:00:19;;;;;;;;;;;;;;;;;;5006917;28;19928;-77
2022/05/09 08:02:45;;;;;;;;;;;;;;;;;;4994047;28;19921;-77
2022/05/09 08:05:11;;;;;;;;;;;;;;;;;;4995424;28;19914;-78
2022/05/09 08:07:37;;;;;;;;;;;;;;;;;;5009065;28;20305;-77
2022/05/09 08:10:03;;;;;;;;;;;;;;;;;;5013485;28;19913;-77
2022/05/09 08:12:29;;;;;;;;;;;;;;;;;;5009677;28;19925;-78
2022/05/09 08:14:55;;;;;;;;;;;;;;;;;;4989155;28;19917;-77
2022/05/09 08:17:21;;;;;;;;;;;;;;;;;;4997288;28;20389;-78
2022/05/09 08:19:47;;;;;;;;;;;;;;;;;;5012407;28;21404;-77
2022/05/09 08:22:13;;;;;;;;;;;;;;;;;;4991127;28;19994;-78
2022/05/09 08:24:39;;;;;;;;;;;;;;;;;;4988978;28;20281;-78
2022/05/09 08:27:05;;;;;;;;;;;;;;;;;;4992702;28;19987;-77
2022/05/09 08:29:31;;;;;;;;;;;;;;;;;;4988997;28;19917;-77
2022/05/09 08:31:57;;;;;;;;;;;;;;;;;;4992764;28;19940;-77
2022/05/09 08:34:23;;;;;;;;;;;;;;;;;;4996663;28;20929;-77
2022/05/09 08:36:50;;;;;;;;;;;;;;;;;;4994215;28;19921;-78
2022/05/09 08:39:16;;;;;;;;;;;;;;;;;;5004359;28;20395;-77
2022/05/09 08:41:42;;;;;;;;;;;;;;;;;;5006047;28;19913;-78
2022/05/09 08:44:08;;;;;;;;;;;;;;;;;;5012067;28;19920;-77
2022/05/09 08:46:36;;;;;;;;;;;;;;;;;;5014168;28;19921;-77
2022/05/09 08:49:02;;;;;;;;;;;;;;;;;;5010186;28;19929;-78
2022/05/09 08:51:28;;;;;;;;;;;;;;;;;;5014270;28;20838;-77
2022/05/09 08:53:54;;;;;;;;;;;;;;;;;;5000769;28;19924;-77
2022/05/09 08:56:21;;;;;;;;;;;;;;;;;;4994757;28;20427;-77
2022/05/09 08:58:47;;;;;;;;;;;;;;;;;;5013895;28;20433;-77
2022/05/09 09:01:13;;;;;;;;;;;;;;;;;;5016262;28;20008;-78
2022/05/09 09:03:39;;;;;;;;;;;;;;;;;;5016941;28;19913;-77
2022/05/09 09:06:05;;;;;;;;;;;;;;;;;;4998588;28;19921;-78
2022/05/09 09:08:31;;;;;;;;;;;;;;;;;;4996858;28;19979;-78
2022/05/09 09:10:57;;;;;;;;;;;;;;;;;;5014541;28;20007;-77
2022/05/09 09:13:23;;;;;;;;;;;;;;;;;;5014689;28;19925;-77
2022/05/09 09:15:51;;;;;;;;;;;;;;;;;;4998594;28;19917;-78
2022/05/09 09:18:17;;;;;;;;;;;;;;;;;;4999749;28;20431;-78
2022/05/09 09:20:43;;;;;;;;;;;;;;;;;;5014078;28;19921;-78
2022/05/09 09:23:14;;;;;;;;;;;;;;;;;;5013316;28;20351;-78
2022/05/09 09:25:40;;;;;;;;;;;;;;;;;;4995851;28;20296;-78
2022/05/09 09:28:06;;;;;;;;;;;;;;;;;;5003134;28;19960;-78
2022/05/09 09:30:32;;;;;;;;;;;;;;;;;;4997354;28;19941;-77
2022/05/09 09:32:58;;;;;;;;;;;;;;;;;;5014417;28;19921;-78
2022/05/09 09:35:24;;;;;;;;;;;;;;;;;;4999186;28;21863;-78
2022/05/09 09:42:54;;;;;;;;;;;;;;;;;;4974446;28;19968;-77
2022/05/09 09:45:20;;;;;;;;;;;;;;;;;;4957496;28;19992;-77
2022/05/09 09:47:46;;;;;;;;;;;;;;;;;;4960195;28;19918;-78
2022/05/09 09:50:12;;;;;;;;;;;;;;;;;;4969919;28;19918;-77
2022/05/09 09:52:38;;;;;;;;;;;;;;;;;;4951568;28;20020;-77
2022/05/09 09:55:04;;;;;;;;;;;;;;;;;;4956532;28;20377;-77
2022/05/09 09:57:30;;;;;;;;;;;;;;;;;;4955633;28;19917;-76
2022/05/09 09:59:58;;;;;;;;;;;;;;;;;;4952934;28;19918;-77
2022/05/09 10:02:24;;;;;;;;;;;;;;;;;;4973639;28;19918;-77
2022/05/09 10:04:50;;;;;;;;;;;;;;;;;;4973298;28;19922;-77
2022/05/09 10:07:16;;;;;;;;;;;;;;;;;;4959466;28;20382;-77
2022/05/09 10:09:42;;;;;;;;;;;;;;;;;;4976767;28;19930;-77
2022/05/09 10:12:08;;;;;;;;;;;;;;;;;;4958892;28;19958;-77
2022/05/09 10:14:34;;;;;;;;;;;;;;;;;;4979353;28;20515;-77
2022/05/09 10:17:00;;;;;;;;;;;;;;;;;;4974624;28;19925;-77
2022/05/09 10:19:26;;;;;;;;;;;;;;;;;;4972591;28;19925;-77
2022/05/09 10:26:50;;;;;;;12.32;3.38;;;;;;;;;;5015433;28;20065;-75
2022/05/09 10:29:17;;;;;;;6.85;3.45;;;;;;;;;;5014801;28;20472;-76
2022/05/09 10:31:53;;;;;;;18.75;3.95;;;;;;;;;;5010412;28;20065;-76
2022/05/09 10:34:26;;;;;;;7.78;3.35;;;;;;;;;;5025531;28;20033;-76
2022/05/09 10:36:52;;;;;;;13.05;4.15;;;;;;;;;;5016048;28;20499;-77
2022/05/09 10:39:18;;;;;;;7.72;2.90;;;;;;;;;;5012564;28;20026;-76
2022/05/09 10:41:48;;;;;;;10.02;2.95;;;;;;;;;;4997923;28;20133;-76
2022/05/09 10:44:28;;;;;;;8.90;2.67;;;;;;;;;;4997596;28;20477;-75
2022/05/09 10:47:03;;;;;;;5.30;3.50;;;;;;;;;;4988828;28;20168;-76
2022/05/09 10:49:33;;;;;;;16.80;2.72;;;;;;;;;;4996955;28;20026;-76
2022/05/09 10:51:59;;;;;;;8.75;2.60;;;;;;;;;;4986535;28;20477;-76
2022/05/09 10:54:25;;;;;;;8.10;2.63;;;;;;;;;;4991953;28;20034;-76
2022/05/09 10:56:55;;;;;;;4.53;2.67;;;;;;;;;;5007799;28;20104;-76
2022/05/09 10:59:29;;;;;;;11.35;3.40;;;;;;;;;;4996544;28;20033;-76
2022/05/09 11:02:00;;;;;;;8.90;3.45;;;;;;;;;;4995561;28;20567;-76
2022/05/09 11:04:26;;;;;;;6.68;2.50;;;;;;;;;;4996406;28;20428;-76
2022/05/09 11:06:55;;;;;;;6.95;3.10;;;;;;;;;;4997434;28;20026;-76
2022/05/09 11:09:28;;;;;;;12.43;3.60;;;;;;;;;;4993616;28;20034;-77
2022/05/09 11:11:54;;;;;;;10.80;3.28;;;;;;;;;;4997974;28;20061;-76
2022/05/09 11:14:36;;;;;;;12.38;3.45;;;;;;;;;;4998473;28;20160;-76
2022/05/09 11:17:11;;;;;;;9.63;3.55;;;;;;;;;;4995015;28;20481;-76
2022/05/09 11:19:52;;;;;;;6.22;2.90;;;;;;;;;;4995383;28;20128;-76
2022/05/09 11:22:37;;;;;;;11.68;3.72;;;;;;;;;;5004237;28;20137;-76
2022/05/09 11:25:23;;;;;;;11.60;2.72;;;;;;;;;;5011401;28;20680;-76
2022/05/09 11:28:07;;;;;;;7.13;2.63;;;;;;;;;;5002210;28;20342;-76
2022/05/09 11:30:38;;;;;;;8.27;2.78;;;;;;;;;;5010388;28;20030;-76
2022/05/09 11:33:42;;;;;;;7.60;2.55;;;;;;;;;;5016862;28;20026;-76
2022/05/09 11:36:08;;;;;;;9.60;2.70;;;;;;;;;;4883697;29;20044;-76
2022/05/09 11:38:47;;;;;;;7.68;2.85;;;;;;;;;;4901475;29;20397;-77
2022/05/09 11:41:13;;;;;;;9.65;3.28;;;;;;;;;;4952635;28;20038;-76
2022/05/09 11:43:56;;;;;;;8.80;3.28;;;;;;;;;;4980761;28;20097;-76
2022/05/09 11:46:32;;;;;;;13.05;2.97;;;;;;;;;;5000229;28;20156;-76
2022/05/09 11:49:08;;;;;;;7.13;2.88;;;;;;;;;;4997922;28;20070;-76
2022/05/09 11:51:40;;;;;;;7.90;2.47;;;;;;;;;;5001840;28;20088;-77
2022/05/09 11:54:12;;;;;;;11.95;3.33;;;;;;;;;;5002219;28;20373;-77
2022/05/09 11:56:40;;;;;;;8.10;2.60;;;;;;;;;;5001069;28;20049;-77
2022/05/09 11:59:19;;;;;;;9.88;2.97;;;;;;;;;;4995412;28;20512;-77
2022/05/09 12:02:09;;;;;;;9.18;2.97;;;;;;;;;;4980851;28;20030;-77
2022/05/09 12:04:35;;;;;;;8.55;2.97;;;;;;;;;;4989420;28;20120;-77
2022/05/09 12:07:21;;;;;;;15.30;3.85;;;;;;;;;;4984606;28;20037;-77
2022/05/09 12:09:55;;;;;;;12.25;3.35;;;;;;;;;;5000887;28;20088;-76
2022/05/09 12:12:54;;;;;;;10.35;3.58;;;;;;;;;;4979205;28;20056;-77
2022/05/09 12:15:20;;;;;;;12.98;3.38;;;;;;;;;;4991613;28;20049;-77
2022/05/09 12:17:53;;;;;;;6.82;2.90;;;;;;;;;;4997996;28;20068;-77
2022/05/09 12:20:26;;;;;;;9.82;3.72;;;;;;;;;;4980600;28;20584;-77
2022/05/09 12:22:52;;;;;;;7.20;2.70;;;;;;;;;;4991437;28;20397;-77
2022/05/09 12:25:39;;;;;;;6.75;2.83;;;;;;;;;;4978748;28;20034;-77
2022/05/09 12:28:06;;;;;;;9.60;3.08;;;;;;;;;;4977954;28;20019;-77
2022/05/09 12:30:35;;;;;;;10.82;2.47;;;;;;;;;;4961602;28;20108;-77
2022/05/09 12:33:03;;;;;;;10.90;3.08;;;;;;;;;;4976305;28;20034;-77
2022/05/09 12:35:29;;;;;;;6.95;2.50;;;;;;;;;;4979204;28;20045;-77
2022/05/09 12:37:55;;;;;;;9.75;3.30;;;;;;;;;;4976944;28;20038;-77
2022/05/09 12:40:23;;;;;;;10.38;3.10;;;;;;;;;;4978630;28;20145;-77
2022/05/09 12:42:51;;;;;;;14.20;3.00;;;;;;;;;;4964257;28;20494;-77
2022/05/09 12:45:18;;;;;;;7.60;2.40;;;;;;;;;;4979734;28;20390;-77
2022/05/09 12:47:47;;;;;;;10.40;2.78;;;;;;;;;;4980225;28;20467;-77
2022/05/09 12:50:16;;;;;;;14.43;2.88;;;;;;;;;;4981017;28;20031;-77
2022/05/09 12:52:43;;;;;;;9.77;2.97;;;;;;;;;;4980397;28;20352;-77
2022/05/09 12:57:57;;;;;;;10.98;3.30;;;;;;;;;;4976613;28;20096;-77
2022/05/09 13:00:26;;;;;;;6.43;2.70;;;;;;;;;;4961739;28;20117;-77
2022/05/09 13:02:52;;;;;;;7.95;3.50;;;;;;;;;;4974750;28;20034;-77
2022/05/09 13:05:31;;;;;;;6.13;2.30;;;;;;;;;;4975193;28;20104;-77
2022/05/09 13:08:01;;;;;;;5.85;2.22;;;;;;;;;;4962763;28;20430;-78
2022/05/09 13:10:29;;;;;;;8.43;2.00;;;;;;;;;;4976879;28;20180;-77
2022/05/09 13:12:57;;;;;;;5.70;2.10;;;;;;;;;;4967673;28;20913;-78
2022/05/09 13:15:23;;;;;;;9.88;2.58;;;;;;;;;;4979154;28;20037;-78
2022/05/09 13:17:58;;;;;;;8.63;2.25;;;;;;;;;;4980700;28;20572;-78
2022/05/09 13:20:25;;;;;;;6.07;2.53;;;;;;;;;;4979789;28;20030;-78
2022/05/09 13:23:06;;;;;;;7.85;2.28;;;;;;;;;;4975674;28;20930;-78
2022/05/09 13:25:38;;;;;;;13.75;2.67;;;;;;;;;;4962568;28;20025;-79
2022/05/09 13:28:06;;;;;;;7.57;2.33;;;;;;;;;;4979942;28;20037;-79
2022/05/09 13:30:37;;;;;;;12.90;3.25;;;;;;;;;;4968046;28;20380;-79
2022/05/09 13:33:03;;;;;;;9.38;3.95;;;;;;;;;;4961950;28;20026;-79
2022/05/09 13:35:34;;;;;;;9.43;2.55;;;;;;;;;;4975177;28;20392;-78
2022/05/09 13:38:19;;;;;;;8.77;2.38;;;;;;;;;;4955875;28;20038;-78
2022/05/09 13:40:46;;;;;;;5.63;2.10;;;;;;;;;;4960630;28;20449;-78
2022/05/09 13:43:14;;;;;;;6.65;2.50;;;;;;;;;;4978298;28;20593;-77
2022/05/09 13:45:41;;;;;;;12.63;2.22;;;;;;;;;;4963658;28;20041;-78
2022/05/09 13:48:08;;;;;;;7.05;2.50;;;;;;;;;;4976539;28;20157;-78
2022/05/09 13:50:36;;;;;;;12.02;2.28;;;;;;;;;;4961914;28;20046;-78
2022/05/09 13:53:08;;;;;;;8.68;2.67;;;;;;;;;;4979385;28;20039;-78
2022/05/09 13:55:36;;;;;;;7.70;3.03;;;;;;;;;;4956283;28;20117;-79
2022/05/09 13:58:02;;;;;;;9.60;2.33;;;;;;;;;;4960117;28;20046;-78
2022/05/09 14:00:49;;;;;;;5.93;2.30;;;;;;;;;;4978218;28;20409;-78
2022/05/09 14:03:21;;;;;;;7.95;2.22;;;;;;;;;;4974394;28;20038;-78
2022/05/09 14:05:48;;;;;;;11.18;2.17;;;;;;;;;;4963714;28;20023;-78
2022/05/09 14:08:14;;;;;;;9.90;2.38;;;;;;;;;;4978523;28;20038;-78
2022/05/09 14:10:42;;;;;;;10.82;2.25;;;;;;;;;;4959058;28;20125;-78
2022/05/09 14:13:26;;;;;;;17.73;3.05;;;;;;;;;;4978281;28;20030;-78
2022/05/09 14:15:55;;;;;;;6.57;2.67;;;;;;;;;;4978020;28;20553;-78
2022/05/09 14:18:21;;;;;;;10.23;3.05;;;;;;;;;;4974298;28;20116;-78
2022/05/09 14:20:48;;;;;;;10.10;2.72;;;;;;;;;;4978758;28;20046;-78
2022/05/09 14:23:15;;;;;;;7.05;2.33;;;;;;;;;;4960689;28;20400;-78
2022/05/09 14:31:36;;;;;;;6.95;2.60;;;;;;;;;;4975939;28;20037;-78
2022/05/09 14:34:03;;;;;;;5.47;2.25;;;;;;;;;;4957290;28;20026;-78
2022/05/09 14:36:36;;;;;;;6.63;2.35;;;;;;;;;;4957970;28;20470;-78
2022/05/09 14:39:15;;;;;;;12.23;2.80;;;;;;;;;;4960043;28;20448;-78
2022/05/09 14:41:41;;;;;;;7.82;2.47;;;;;;;;;;4962073;28;20190;-78
2022/05/09 14:44:25;;;;;;;9.07;2.80;;;;;;;;;;4976550;28;20052;-78
2022/05/09 14:47:04;;;;;;;4.25;1.80;;;;;;;;;;4956921;28;20506;-78
2022/05/09 14:49:39;;;;;;;6.97;2.42;;;;;;;;;;4969180;28;20044;-78
2022/05/09 14:52:15;;;;;;;6.10;2.35;;;;;;;;;;4987540;23;20055;-88
2022/05/09 14:54:46;;;;;;;6.15;2.03;;;;;;;;;;4935641;28;20388;-88
2022/05/09 14:57:26;;;;;;;5.60;2.08;;;;;;;;;;4942772;28;20031;-87
2022/05/09 14:59:57;;;;;;;7.40;2.33;;;;;;;;;;4953716;28;20038;-87
2022/05/09 15:02:29;;;;;;;12.70;2.35;;;;;;;;;;4961223;28;20023;-87
2022/05/09 15:04:56;;;;;;;10.25;2.67;;;;;;;;;;4958401;28;20045;-87
2022/05/09 15:07:22;;;;;;;8.85;2.38;;;;;;;;;;4974029;28;20039;-87
2022/05/09 15:09:50;;;;;;;6.18;2.55;;;;;;;;;;4960106;28;20042;-87
2022/05/09 15:12:21;;;;;;;7.65;2.17;;;;;;;;;;4959953;28;20101;-86
2022/05/09 15:14:48;;;;;;;10.50;2.50;;;;;;;;;;4979843;28;20031;-86
2022/05/09 15:17:14;;;;;;;10.88;2.58;;;;;;;;;;4959698;28;20609;-86
2022/05/09 15:19:40;;;;;;;17.23;2.78;;;;;;;;;;4960202;28;20057;-87
2022/05/09 15:22:06;;;;;;;6.80;2.45;;;;;;;;;;4962315;28;20086;-87
2022/05/09 15:24:32;;;;;;;16.88;2.85;;;;;;;;;;4956970;28;20574;-87
2022/05/09 15:26:58;;;;;;;7.38;2.30;;;;;;;;;;4958544;28;20114;-87
2022/05/09 15:29:25;;;;;;;7.00;2.25;;;;;;;;;;4974158;28;20023;-86
2022/05/09 15:31:51;;;;;;;7.13;2.35;;;;;;;;;;4979827;28;20034;-87
2022/05/09 15:34:18;;;;;;;6.38;2.72;;;;;;;;;;4955865;28;20438;-86
2022/05/09 15:36:44;;;;;;;8.40;2.28;;;;;;;;;;4965643;28;20041;-88
2022/05/09 15:39:11;;;;;;;11.75;3.05;;;;;;;;;;4978162;28;20054;-88
2022/05/09 15:41:37;;;;;;;14.27;1.95;;;;;;;;;;4963632;28;20049;-87
2022/05/09 15:44:06;;;;;;;7.53;2.65;;;;;;;;;;4965457;28;20014;-86
2022/05/09 15:46:34;;;;;;;7.80;2.20;;;;;;;;;;4977676;28;20549;-86
2022/05/09 15:49:01;;;;;;;8.73;2.63;;;;;;;;;;4960076;28;20472;-86
2022/05/09 15:51:27;;;;;;;9.45;2.50;;;;;;;;;;4964573;28;20047;-85
2022/05/09 15:53:55;;;;;;;7.07;2.42;;;;;;;;;;4975569;28;20030;-86
2022/05/09 15:56:22;;;;;;;8.10;2.08;;;;;;;;;;4980543;28;20033;-86
2022/05/09 15:58:50;;;;;;;15.88;3.10;;;;;;;;;;4964421;28;20067;-86
2022/05/09 16:01:20;;;;;;;10.20;4.13;;;;;;;;;;4962597;28;20379;-86
2022/05/09 16:03:46;;;;;;;8.90;2.03;;;;;;;;;;4960850;28;21041;-86
2022/05/09 16:11:43;;;;;;;12.73;2.20;;;;;;;;;;4976820;28;20058;-86
2022/05/09 16:14:11;;;;;;;10.63;2.20;;;;;;;;;;4958999;28;20035;-86
2022/05/09 16:16:40;;;;;;;15.20;2.15;;;;;;;;;;4964228;28;20037;-86
2022/05/09 16:19:08;;;;;;;6.25;2.22;;;;;;;;;;4966418;28;20410;-86
2022/05/09 16:21:34;;;;;;;8.02;2.10;;;;;;;;;;4962036;28;20037;-85
2022/05/09 16:24:00;;;;;;;10.45;2.10;;;;;;;;;;4959647;28;20082;-86
2022/05/09 16:26:32;;;;;;;3.78;1.85;;;;;;;;;;4960762;28;20054;-86
2022/05/09 16:29:00;;;;;;;7.60;1.85;;;;;;;;;;4958634;28;20031;-87
2022/05/09 16:31:26;;;;;;;8.30;2.70;;;;;;;;;;4966006;28;20033;-87